sensor_id;sensor_type;location;lat;lon;timestamp;temperature;humidity
16174;DHT22;14031;50.158;8.626;2022-07-21T00:00:24;24.40;99.90
16174;DHT22;14031;50.158;8.626;2022-07-21T00:02:51;24.40;99.90
16174;DHT22;14031;50.158;8.626;2022-07-21T00:05:22;24.30;99.90
16174;DHT22;14031;50.158;8.626;2022-07-21T00:07:50;24.40;99.90
16174;DHT22;14031;50.158;8.626;2022-07-21T00:10:18;24.30;99.90
16174;DHT22;14031;50.158;8.626;2022-07-21T00:15:28;24.20;99.90
16174;DHT22;14031;50.158;8.626;2022-07-21T00:17:55;24.20;99.90
16174;DHT22;14031;50.158;8.626;2022-07-21T00:20:26;24.20;99.90
16174;DHT22;14031;50.158;8.626;2022-07-21T00:22:59;24.10;99.90
16174;DHT22;14031;50.158;8.626;2022-07-21T00:25:26;24.20;99.90
16174;DHT22;14031;50.158;8.626;2022-07-21T00:30:30;24.10;99.90
16174;DHT22;14031;50.158;8.626;2022-07-21T00:35:33;24.10;99.90
16174;DHT22;14031;50.158;8.626;2022-07-21T00:38:00;24.10;99.90
16174;DHT22;14031;50.158;8.626;2022-07-21T00:40:29;24.00;99.90
16174;DHT22;14031;50.158;8.626;2022-07-21T02:19:22;23.70;99.90
16174;DHT22;14031;50.158;8.626;2022-07-21T02:21:49;23.60;99.90
16174;DHT22;14031;50.158;8.626;2022-07-21T02:24:16;23.60;99.90
16174;DHT22;14031;50.158;8.626;2022-07-21T02:26:43;23.60;99.90
16174;DHT22;14031;50.158;8.626;2022-07-21T02:29:12;23.50;99.90
16174;DHT22;14031;50.158;8.626;2022-07-21T02:31:39;23.40;99.90
16174;DHT22;14031;50.158;8.626;2022-07-21T02:34:05;23.40;99.90
16174;DHT22;14031;50.158;8.626;2022-07-21T02:36:34;23.30;99.90
16174;DHT22;14031;50.158;8.626;2022-07-21T02:39:01;23.30;99.90
16174;DHT22;14031;50.158;8.626;2022-07-21T02:41:28;23.20;99.90
16174;DHT22;14031;50.158;8.626;2022-07-21T02:43:55;23.20;99.90
16174;DHT22;14031;50.158;8.626;2022-07-21T02:46:22;23.20;99.90
16174;DHT22;14031;50.158;8.626;2022-07-21T02:48:49;23.20;99.90
16174;DHT22;14031;50.158;8.626;2022-07-21T02:51:16;23.10;99.90
16174;DHT22;14031;50.158;8.626;2022-07-21T02:53:44;23.10;99.90
16174;DHT22;14031;50.158;8.626;2022-07-21T02:56:11;23.10;99.90
16174;DHT22;14031;50.158;8.626;2022-07-21T02:58:38;23.00;99.90
16174;DHT22;14031;50.158;8.626;2022-07-21T03:01:06;23.00;99.90
16174;DHT22;14031;50.158;8.626;2022-07-21T03:03:35;23.00;99.90
16174;DHT22;14031;50.158;8.626;2022-07-21T03:06:03;23.00;99.90
16174;DHT22;14031;50.158;8.626;2022-07-21T03:08:32;22.90;99.90
16174;DHT22;14031;50.158;8.626;2022-07-21T03:11:01;22.90;99.90
16174;DHT22;14031;50.158;8.626;2022-07-21T03:13:28;22.90;99.90
16174;DHT22;14031;50.158;8.626;2022-07-21T03:15:55;22.80;99.90
16174;DHT22;14031;50.158;8.626;2022-07-21T03:18:22;22.80;99.90
16174;DHT22;14031;50.158;8.626;2022-07-21T03:20:49;22.80;99.90
16174;DHT22;14031;50.158;8.626;2022-07-21T03:23:16;22.80;99.90
16174;DHT22;14031;50.158;8.626;2022-07-21T03:25:43;22.70;99.90
16174;DHT22;14031;50.158;8.626;2022-07-21T03:28:11;22.70;99.90
16174;DHT22;14031;50.158;8.626;2022-07-21T03:30:38;22.70;99.90
16174;DHT22;14031;50.158;8.626;2022-07-21T03:33:06;22.70;99.90
16174;DHT22;14031;50.158;8.626;2022-07-21T03:35:33;22.70;99.90
16174;DHT22;14031;50.158;8.626;2022-07-21T03:38:01;22.60;99.90
16174;DHT22;14031;50.158;8.626;2022-07-21T03:40:31;22.60;99.90
16174;DHT22;14031;50.158;8.626;2022-07-21T03:42:59;22.70;99.90
16174;DHT22;14031;50.158;8.626;2022-07-21T03:45:28;22.60;99.90
16174;DHT22;14031;50.158;8.626;2022-07-21T03:47:56;22.60;99.90
16174;DHT22;14031;50.158;8.626;2022-07-21T03:50:24;22.50;99.90
16174;DHT22;14031;50.158;8.626;2022-07-21T03:52:51;22.60;99.90
16174;DHT22;14031;50.158;8.626;2022-07-21T03:55:18;22.60;99.90
16174;DHT22;14031;50.158;8.626;2022-07-21T03:57:46;22.50;99.90
16174;DHT22;14031;50.158;8.626;2022-07-21T04:00:15;22.50;99.90
16174;DHT22;14031;50.158;8.626;2022-07-21T04:02:44;22.40;99.90
16174;DHT22;14031;50.158;8.626;2022-07-21T04:05:12;22.40;99.90
16174;DHT22;14031;50.158;8.626;2022-07-21T04:07:40;22.40;99.90
16174;DHT22;14031;50.158;8.626;2022-07-21T04:10:09;22.40;99.90
16174;DHT22;14031;50.158;8.626;2022-07-21T04:12:36;22.50;99.90
16174;DHT22;14031;50.158;8.626;2022-07-21T04:15:05;22.40;99.90
16174;DHT22;14031;50.158;8.626;2022-07-21T04:17:32;22.40;99.90
16174;DHT22;14031;50.158;8.626;2022-07-21T04:20:01;22.30;99.90
16174;DHT22;14031;50.158;8.626;2022-07-21T04:22:28;22.40;99.90
16174;DHT22;14031;50.158;8.626;2022-07-21T04:24:55;22.40;99.90
16174;DHT22;14031;50.158;8.626;2022-07-21T04:27:22;22.30;99.90
16174;DHT22;14031;50.158;8.626;2022-07-21T04:29:49;22.30;99.90
16174;DHT22;14031;50.158;8.626;2022-07-21T04:32:17;22.30;99.90
16174;DHT22;14031;50.158;8.626;2022-07-21T04:34:45;22.30;99.90
16174;DHT22;14031;50.158;8.626;2022-07-21T04:37:13;22.40;99.90
16174;DHT22;14031;50.158;8.626;2022-07-21T04:39:40;22.30;99.90
16174;DHT22;14031;50.158;8.626;2022-07-21T04:42:07;22.30;99.90
16174;DHT22;14031;50.158;8.626;2022-07-21T04:44:34;22.40;99.90
16174;DHT22;14031;50.158;8.626;2022-07-21T04:47:05;22.40;99.90
16174;DHT22;14031;50.158;8.626;2022-07-21T04:49:31;22.40;99.90
16174;DHT22;14031;50.158;8.626;2022-07-21T04:51:59;22.40;99.90
16174;DHT22;14031;50.158;8.626;2022-07-21T04:54:27;22.40;99.90
16174;DHT22;14031;50.158;8.626;2022-07-21T04:57:07;22.30;99.90
16174;DHT22;14031;50.158;8.626;2022-07-21T04:59:55;22.40;99.90
16174;DHT22;14031;50.158;8.626;2022-07-21T05:02:22;22.30;99.90
16174;DHT22;14031;50.158;8.626;2022-07-21T05:04:49;22.40;99.90
16174;DHT22;14031;50.158;8.626;2022-07-21T05:07:17;22.40;99.90
16174;DHT22;14031;50.158;8.626;2022-07-21T05:09:45;22.40;99.90
16174;DHT22;14031;50.158;8.626;2022-07-21T05:12:12;22.40;99.90
16174;DHT22;14031;50.158;8.626;2022-07-21T05:14:44;22.50;99.90
16174;DHT22;14031;50.158;8.626;2022-07-21T05:17:11;22.50;99.90
16174;DHT22;14031;50.158;8.626;2022-07-21T05:19:38;22.60;99.90
16174;DHT22;14031;50.158;8.626;2022-07-21T05:22:06;22.70;99.90
16174;DHT22;14031;50.158;8.626;2022-07-21T05:24:33;22.80;99.90
16174;DHT22;14031;50.158;8.626;2022-07-21T05:27:01;22.90;99.90
16174;DHT22;14031;50.158;8.626;2022-07-21T05:29:28;22.90;99.90
16174;DHT22;14031;50.158;8.626;2022-07-21T05:31:55;23.10;99.90
16174;DHT22;14031;50.158;8.626;2022-07-21T05:34:22;23.20;99.90
16174;DHT22;14031;50.158;8.626;2022-07-21T05:36:49;23.20;99.90
16174;DHT22;14031;50.158;8.626;2022-07-21T05:39:16;23.00;99.90
16174;DHT22;14031;50.158;8.626;2022-07-21T05:41:43;23.00;99.90
16174;DHT22;14031;50.158;8.626;2022-07-21T05:44:11;23.00;99.90
16174;DHT22;14031;50.158;8.626;2022-07-21T05:46:38;23.00;99.90
16174;DHT22;14031;50.158;8.626;2022-07-21T05:49:05;23.00;99.90
16174;DHT22;14031;50.158;8.626;2022-07-21T05:51:32;23.00;99.90
16174;DHT22;14031;50.158;8.626;2022-07-21T05:53:59;23.00;99.90
16174;DHT22;14031;50.158;8.626;2022-07-21T05:56:26;23.00;99.90
16174;DHT22;14031;50.158;8.626;2022-07-21T05:58:53;23.00;99.90
16174;DHT22;14031;50.158;8.626;2022-07-21T06:01:22;23.00;99.90
16174;DHT22;14031;50.158;8.626;2022-07-21T06:03:50;23.00;99.90
16174;DHT22;14031;50.158;8.626;2022-07-21T06:06:19;23.00;99.90
16174;DHT22;14031;50.158;8.626;2022-07-21T06:08:49;23.00;99.90
16174;DHT22;14031;50.158;8.626;2022-07-21T06:11:19;23.00;99.90
16174;DHT22;14031;50.158;8.626;2022-07-21T06:13:47;23.00;99.90
16174;DHT22;14031;50.158;8.626;2022-07-21T06:16:14;23.00;99.90
16174;DHT22;14031;50.158;8.626;2022-07-21T06:18:43;23.10;99.90
16174;DHT22;14031;50.158;8.626;2022-07-21T06:21:10;23.20;99.90
16174;DHT22;14031;50.158;8.626;2022-07-21T06:23:37;23.30;99.90
16174;DHT22;14031;50.158;8.626;2022-07-21T06:26:04;23.30;99.90
16174;DHT22;14031;50.158;8.626;2022-07-21T06:28:31;23.40;99.90
16174;DHT22;14031;50.158;8.626;2022-07-21T06:30:57;23.50;99.90
16174;DHT22;14031;50.158;8.626;2022-07-21T06:33:24;23.60;99.90
16174;DHT22;14031;50.158;8.626;2022-07-21T06:35:53;23.60;99.90
16174;DHT22;14031;50.158;8.626;2022-07-21T06:38:20;23.60;99.90
16174;DHT22;14031;50.158;8.626;2022-07-21T06:40:47;23.60;99.90
16174;DHT22;14031;50.158;8.626;2022-07-21T06:43:13;23.60;99.90
16174;DHT22;14031;50.158;8.626;2022-07-21T06:45:40;23.70;99.90
16174;DHT22;14031;50.158;8.626;2022-07-21T06:48:08;23.70;99.90
16174;DHT22;14031;50.158;8.626;2022-07-21T06:50:36;23.70;99.90
16174;DHT22;14031;50.158;8.626;2022-07-21T06:53:04;23.60;99.90
16174;DHT22;14031;50.158;8.626;2022-07-21T06:55:32;23.60;99.90
16174;DHT22;14031;50.158;8.626;2022-07-21T06:58:08;23.80;99.90
16174;DHT22;14031;50.158;8.626;2022-07-21T07:00:35;23.90;99.90
16174;DHT22;14031;50.158;8.626;2022-07-21T07:03:02;24.00;99.90
16174;DHT22;14031;50.158;8.626;2022-07-21T07:05:32;24.10;99.90
16174;DHT22;14031;50.158;8.626;2022-07-21T07:07:59;24.20;99.90
16174;DHT22;14031;50.158;8.626;2022-07-21T07:10:27;24.30;99.90
16174;DHT22;14031;50.158;8.626;2022-07-21T07:12:56;24.40;99.90
16174;DHT22;14031;50.158;8.626;2022-07-21T07:15:24;24.50;99.90
16174;DHT22;14031;50.158;8.626;2022-07-21T07:17:51;24.50;99.90
16174;DHT22;14031;50.158;8.626;2022-07-21T07:20:18;24.60;99.90
16174;DHT22;14031;50.158;8.626;2022-07-21T07:22:45;24.60;99.90
16174;DHT22;14031;50.158;8.626;2022-07-21T07:25:12;24.60;99.90
16174;DHT22;14031;50.158;8.626;2022-07-21T07:27:45;24.70;99.90
16174;DHT22;14031;50.158;8.626;2022-07-21T07:30:13;24.70;99.90
16174;DHT22;14031;50.158;8.626;2022-07-21T07:32:40;24.70;99.90
16174;DHT22;14031;50.158;8.626;2022-07-21T07:35:08;24.70;99.90
16174;DHT22;14031;50.158;8.626;2022-07-21T07:37:36;24.60;99.90
16174;DHT22;14031;50.158;8.626;2022-07-21T07:40:04;24.50;99.90
16174;DHT22;14031;50.158;8.626;2022-07-21T07:42:33;24.50;99.90
16174;DHT22;14031;50.158;8.626;2022-07-21T07:45:01;24.60;99.90
16174;DHT22;14031;50.158;8.626;2022-07-21T07:47:28;24.60;99.90
16174;DHT22;14031;50.158;8.626;2022-07-21T07:49:55;24.70;99.90
16174;DHT22;14031;50.158;8.626;2022-07-21T07:52:23;24.80;99.90
16174;DHT22;14031;50.158;8.626;2022-07-21T07:54:50;24.90;99.90
16174;DHT22;14031;50.158;8.626;2022-07-21T07:57:17;24.90;99.90
16174;DHT22;14031;50.158;8.626;2022-07-21T07:59:44;25.10;99.90
16174;DHT22;14031;50.158;8.626;2022-07-21T08:02:12;25.20;99.90
16174;DHT22;14031;50.158;8.626;2022-07-21T08:04:39;25.40;99.90
16174;DHT22;14031;50.158;8.626;2022-07-21T08:07:06;25.50;99.90
16174;DHT22;14031;50.158;8.626;2022-07-21T08:09:33;25.60;99.90
16174;DHT22;14031;50.158;8.626;2022-07-21T08:12:00;25.80;99.90
16174;DHT22;14031;50.158;8.626;2022-07-21T08:14:27;25.90;99.90
16174;DHT22;14031;50.158;8.626;2022-07-21T08:16:54;25.90;99.90
16174;DHT22;14031;50.158;8.626;2022-07-21T08:19:25;26.00;99.90
16174;DHT22;14031;50.158;8.626;2022-07-21T08:21:52;26.10;99.90
16174;DHT22;14031;50.158;8.626;2022-07-21T08:24:19;26.00;99.90
16174;DHT22;14031;50.158;8.626;2022-07-21T08:26:46;26.10;99.90
16174;DHT22;14031;50.158;8.626;2022-07-21T08:29:13;26.10;99.90
16174;DHT22;14031;50.158;8.626;2022-07-21T08:31:40;26.30;99.90
16174;DHT22;14031;50.158;8.626;2022-07-21T08:34:07;26.50;99.90
16174;DHT22;14031;50.158;8.626;2022-07-21T08:36:36;26.80;99.90
16174;DHT22;14031;50.158;8.626;2022-07-21T08:39:03;26.90;99.90
16174;DHT22;14031;50.158;8.626;2022-07-21T08:41:31;26.90;99.90
16174;DHT22;14031;50.158;8.626;2022-07-21T08:43:58;26.70;99.90
16174;DHT22;14031;50.158;8.626;2022-07-21T08:46:25;26.40;99.90
16174;DHT22;14031;50.158;8.626;2022-07-21T08:48:53;26.10;99.90
16174;DHT22;14031;50.158;8.626;2022-07-21T08:51:20;25.90;99.90
16174;DHT22;14031;50.158;8.626;2022-07-21T08:53:49;25.70;99.90
16174;DHT22;14031;50.158;8.626;2022-07-21T08:56:16;25.70;99.90
16174;DHT22;14031;50.158;8.626;2022-07-21T08:58:43;25.50;99.90
16174;DHT22;14031;50.158;8.626;2022-07-21T09:01:09;25.40;99.90
16174;DHT22;14031;50.158;8.626;2022-07-21T09:03:37;25.40;99.90
16174;DHT22;14031;50.158;8.626;2022-07-21T09:06:06;25.40;99.90
16174;DHT22;14031;50.158;8.626;2022-07-21T09:08:36;25.40;99.90
16174;DHT22;14031;50.158;8.626;2022-07-21T09:11:20;25.70;99.90
16174;DHT22;14031;50.158;8.626;2022-07-21T09:13:49;26.00;99.90
16174;DHT22;14031;50.158;8.626;2022-07-21T09:16:33;26.20;99.90
16174;DHT22;14031;50.158;8.626;2022-07-21T09:19:06;26.40;99.90
16174;DHT22;14031;50.158;8.626;2022-07-21T09:21:34;26.50;99.90
16174;DHT22;14031;50.158;8.626;2022-07-21T09:24:12;26.60;99.90
16174;DHT22;14031;50.158;8.626;2022-07-21T09:27:06;26.60;99.90
16174;DHT22;14031;50.158;8.626;2022-07-21T09:29:41;26.60;99.90
16174;DHT22;14031;50.158;8.626;2022-07-21T09:32:29;26.60;99.90
16174;DHT22;14031;50.158;8.626;2022-07-21T09:35:00;26.80;99.90
16174;DHT22;14031;50.158;8.626;2022-07-21T09:37:27;26.90;99.90
16174;DHT22;14031;50.158;8.626;2022-07-21T09:39:56;26.90;99.90
16174;DHT22;14031;50.158;8.626;2022-07-21T09:42:27;27.00;99.90
16174;DHT22;14031;50.158;8.626;2022-07-21T09:44:55;27.20;99.90
16174;DHT22;14031;50.158;8.626;2022-07-21T09:47:24;27.40;99.90
16174;DHT22;14031;50.158;8.626;2022-07-21T09:49:52;27.60;99.90
16174;DHT22;14031;50.158;8.626;2022-07-21T09:52:27;27.60;99.90
16174;DHT22;14031;50.158;8.626;2022-07-21T09:55:05;27.90;99.90
16174;DHT22;14031;50.158;8.626;2022-07-21T09:57:34;28.00;99.90
16174;DHT22;14031;50.158;8.626;2022-07-21T10:00:03;28.20;99.90
16174;DHT22;14031;50.158;8.626;2022-07-21T10:02:32;28.30;99.90
16174;DHT22;14031;50.158;8.626;2022-07-21T10:05:05;28.30;99.90
16174;DHT22;14031;50.158;8.626;2022-07-21T10:07:35;28.10;99.90
16174;DHT22;14031;50.158;8.626;2022-07-21T10:10:03;28.00;99.90
16174;DHT22;14031;50.158;8.626;2022-07-21T10:12:30;27.90;99.90
16174;DHT22;14031;50.158;8.626;2022-07-21T10:14:59;27.70;99.90
16174;DHT22;14031;50.158;8.626;2022-07-21T10:17:26;27.60;99.90
16174;DHT22;14031;50.158;8.626;2022-07-21T10:20:01;27.40;99.90
16174;DHT22;14031;50.158;8.626;2022-07-21T10:22:40;27.20;99.90
16174;DHT22;14031;50.158;8.626;2022-07-21T10:25:08;27.20;99.90
16174;DHT22;14031;50.158;8.626;2022-07-21T10:27:36;27.30;99.90
16174;DHT22;14031;50.158;8.626;2022-07-21T10:30:07;27.20;99.90
16174;DHT22;14031;50.158;8.626;2022-07-21T10:32:37;27.00;99.90
16174;DHT22;14031;50.158;8.626;2022-07-21T10:35:25;26.90;99.90
16174;DHT22;14031;50.158;8.626;2022-07-21T10:37:54;26.60;99.90
16174;DHT22;14031;50.158;8.626;2022-07-21T10:40:38;26.50;99.90
16174;DHT22;14031;50.158;8.626;2022-07-21T10:43:37;26.60;99.90
16174;DHT22;14031;50.158;8.626;2022-07-21T10:46:33;26.70;99.90
16174;DHT22;14031;50.158;8.626;2022-07-21T10:49:08;26.80;99.90
16174;DHT22;14031;50.158;8.626;2022-07-21T10:51:37;26.70;99.90
16174;DHT22;14031;50.158;8.626;2022-07-21T10:54:23;26.60;99.90
16174;DHT22;14031;50.158;8.626;2022-07-21T10:57:26;26.70;99.90
16174;DHT22;14031;50.158;8.626;2022-07-21T11:00:22;26.80;99.90
16174;DHT22;14031;50.158;8.626;2022-07-21T11:02:54;26.90;99.90
16174;DHT22;14031;50.158;8.626;2022-07-21T11:05:22;27.10;99.90
16174;DHT22;14031;50.158;8.626;2022-07-21T11:08:10;27.30;99.90
16174;DHT22;14031;50.158;8.626;2022-07-21T11:10:39;27.50;99.90
16174;DHT22;14031;50.158;8.626;2022-07-21T11:13:08;27.60;99.90
16174;DHT22;14031;50.158;8.626;2022-07-21T11:15:44;27.80;99.90
16174;DHT22;14031;50.158;8.626;2022-07-21T11:18:16;27.90;99.90
16174;DHT22;14031;50.158;8.626;2022-07-21T11:20:44;28.10;99.90
16174;DHT22;14031;50.158;8.626;2022-07-21T11:23:11;28.30;99.90
16174;DHT22;14031;50.158;8.626;2022-07-21T11:25:37;28.50;99.90
16174;DHT22;14031;50.158;8.626;2022-07-21T11:28:16;28.60;99.90
16174;DHT22;14031;50.158;8.626;2022-07-21T11:30:43;28.80;99.90
16174;DHT22;14031;50.158;8.626;2022-07-21T11:33:20;29.00;99.90
16174;DHT22;14031;50.158;8.626;2022-07-21T11:35:49;29.30;99.90
16174;DHT22;14031;50.158;8.626;2022-07-21T11:38:17;29.60;99.90
16174;DHT22;14031;50.158;8.626;2022-07-21T11:40:44;29.70;99.90
16174;DHT22;14031;50.158;8.626;2022-07-21T11:43:11;29.90;99.90
16174;DHT22;14031;50.158;8.626;2022-07-21T11:45:37;30.00;99.90
16174;DHT22;14031;50.158;8.626;2022-07-21T11:48:05;30.10;99.90
16174;DHT22;14031;50.158;8.626;2022-07-21T11:50:33;30.10;99.90
16174;DHT22;14031;50.158;8.626;2022-07-21T11:53:00;30.00;99.90
16174;DHT22;14031;50.158;8.626;2022-07-21T11:55:28;30.00;99.90
16174;DHT22;14031;50.158;8.626;2022-07-21T11:58:01;30.10;99.90
16174;DHT22;14031;50.158;8.626;2022-07-21T12:00:28;30.40;99.90
16174;DHT22;14031;50.158;8.626;2022-07-21T12:03:04;30.60;99.90
16174;DHT22;14031;50.158;8.626;2022-07-21T12:05:34;31.10;99.90
16174;DHT22;14031;50.158;8.626;2022-07-21T12:08:03;31.40;99.90
16174;DHT22;14031;50.158;8.626;2022-07-21T12:10:30;31.40;99.90
16174;DHT22;14031;50.158;8.626;2022-07-21T12:12:59;31.40;99.90
16174;DHT22;14031;50.158;8.626;2022-07-21T12:15:29;31.40;99.90
16174;DHT22;14031;50.158;8.626;2022-07-21T12:18:00;31.50;99.90
16174;DHT22;14031;50.158;8.626;2022-07-21T12:20:33;31.60;99.90
16174;DHT22;14031;50.158;8.626;2022-07-21T12:23:17;31.70;99.90
16174;DHT22;14031;50.158;8.626;2022-07-21T12:25:46;31.90;99.90
16174;DHT22;14031;50.158;8.626;2022-07-21T12:28:14;32.00;99.90
16174;DHT22;14031;50.158;8.626;2022-07-21T12:30:43;32.00;99.90
16174;DHT22;14031;50.158;8.626;2022-07-21T12:33:11;32.10;99.90
16174;DHT22;14031;50.158;8.626;2022-07-21T12:35:42;32.30;99.90
16174;DHT22;14031;50.158;8.626;2022-07-21T12:38:11;32.30;99.90
16174;DHT22;14031;50.158;8.626;2022-07-21T12:40:41;32.40;98.40
16174;DHT22;14031;50.158;8.626;2022-07-21T12:43:14;32.50;99.50
16174;DHT22;14031;50.158;8.626;2022-07-21T12:45:48;32.90;99.90
16174;DHT22;14031;50.158;8.626;2022-07-21T12:48:18;33.10;99.00
16174;DHT22;14031;50.158;8.626;2022-07-21T12:51:11;33.20;96.60
16174;DHT22;14031;50.158;8.626;2022-07-21T12:53:43;33.40;96.70
16174;DHT22;14031;50.158;8.626;2022-07-21T12:56:12;33.30;94.70
16174;DHT22;14031;50.158;8.626;2022-07-21T12:58:39;33.40;96.40
16174;DHT22;14031;50.158;8.626;2022-07-21T13:01:07;33.30;93.40
16174;DHT22;14031;50.158;8.626;2022-07-21T13:03:34;33.00;94.60
16174;DHT22;14031;50.158;8.626;2022-07-21T13:06:05;33.00;95.30
16174;DHT22;14031;50.158;8.626;2022-07-21T13:08:33;33.20;94.30
16174;DHT22;14031;50.158;8.626;2022-07-21T13:11:00;33.30;93.80
16174;DHT22;14031;50.158;8.626;2022-07-21T13:13:28;33.40;93.00
16174;DHT22;14031;50.158;8.626;2022-07-21T13:15:55;33.60;93.70
16174;DHT22;14031;50.158;8.626;2022-07-21T13:18:22;33.80;93.30
16174;DHT22;14031;50.158;8.626;2022-07-21T13:20:49;33.80;92.30
16174;DHT22;14031;50.158;8.626;2022-07-21T13:23:18;33.90;92.90
16174;DHT22;14031;50.158;8.626;2022-07-21T13:25:46;33.90;92.00
16174;DHT22;14031;50.158;8.626;2022-07-21T13:28:14;34.00;92.60
16174;DHT22;14031;50.158;8.626;2022-07-21T13:30:41;34.00;91.30
16174;DHT22;14031;50.158;8.626;2022-07-21T13:33:08;34.00;91.50
16174;DHT22;14031;50.158;8.626;2022-07-21T13:35:35;33.90;91.30
16174;DHT22;14031;50.158;8.626;2022-07-21T13:38:02;34.00;91.60
16174;DHT22;14031;50.158;8.626;2022-07-21T13:40:30;34.10;90.40
16174;DHT22;14031;50.158;8.626;2022-07-21T13:42:57;33.80;91.60
16174;DHT22;14031;50.158;8.626;2022-07-21T13:45:24;33.50;91.60
16174;DHT22;14031;50.158;8.626;2022-07-21T13:47:51;33.40;92.20
16174;DHT22;14031;50.158;8.626;2022-07-21T13:50:18;33.10;91.60
16174;DHT22;14031;50.158;8.626;2022-07-21T13:52:45;32.70;91.90
16174;DHT22;14031;50.158;8.626;2022-07-21T13:55:12;32.30;92.60
16174;DHT22;14031;50.158;8.626;2022-07-21T13:57:41;32.00;93.30
16174;DHT22;14031;50.158;8.626;2022-07-21T14:00:09;31.70;93.80
16174;DHT22;14031;50.158;8.626;2022-07-21T14:02:37;31.60;93.80
16174;DHT22;14031;50.158;8.626;2022-07-21T14:05:06;31.70;94.60
16174;DHT22;14031;50.158;8.626;2022-07-21T14:07:33;31.70;94.10
16174;DHT22;14031;50.158;8.626;2022-07-21T14:10:00;31.50;94.20
16174;DHT22;14031;50.158;8.626;2022-07-21T14:12:27;31.20;94.80
16174;DHT22;14031;50.158;8.626;2022-07-21T14:14:56;31.40;95.20
16174;DHT22;14031;50.158;8.626;2022-07-21T14:17:23;32.10;93.70
16174;DHT22;14031;50.158;8.626;2022-07-21T14:19:50;33.00;93.10
16174;DHT22;14031;50.158;8.626;2022-07-21T14:22:17;33.90;91.90
16174;DHT22;14031;50.158;8.626;2022-07-21T14:24:46;34.20;90.90
16174;DHT22;14031;50.158;8.626;2022-07-21T14:27:31;34.10;90.30
16174;DHT22;14031;50.158;8.626;2022-07-21T14:30:00;34.00;89.50
16174;DHT22;14031;50.158;8.626;2022-07-21T14:32:27;33.50;90.00
16174;DHT22;14031;50.158;8.626;2022-07-21T14:34:54;33.00;91.10
16174;DHT22;14031;50.158;8.626;2022-07-21T14:37:21;32.80;92.00
16174;DHT22;14031;50.158;8.626;2022-07-21T14:39:48;32.50;92.30
16174;DHT22;14031;50.158;8.626;2022-07-21T14:42:16;32.30;93.00
16174;DHT22;14031;50.158;8.626;2022-07-21T14:44:43;32.10;93.10
16174;DHT22;14031;50.158;8.626;2022-07-21T14:47:12;31.70;93.10
16174;DHT22;14031;50.158;8.626;2022-07-21T14:49:39;31.50;92.60
16174;DHT22;14031;50.158;8.626;2022-07-21T14:52:06;31.20;93.30
16174;DHT22;14031;50.158;8.626;2022-07-21T14:54:34;31.10;93.80
16174;DHT22;14031;50.158;8.626;2022-07-21T14:57:01;31.30;94.20
16174;DHT22;14031;50.158;8.626;2022-07-21T14:59:30;31.80;93.80
16174;DHT22;14031;50.158;8.626;2022-07-21T15:01:57;32.50;93.80
16174;DHT22;14031;50.158;8.626;2022-07-21T15:04:26;33.50;93.10
16174;DHT22;14031;50.158;8.626;2022-07-21T15:06:53;34.10;91.90
16174;DHT22;14031;50.158;8.626;2022-07-21T15:09:20;34.10;90.80
16174;DHT22;14031;50.158;8.626;2022-07-21T15:11:47;33.50;91.40
16174;DHT22;14031;50.158;8.626;2022-07-21T15:14:14;33.00;92.40
16174;DHT22;14031;50.158;8.626;2022-07-21T15:16:41;32.50;92.50
16174;DHT22;14031;50.158;8.626;2022-07-21T15:19:08;32.00;93.10
16174;DHT22;14031;50.158;8.626;2022-07-21T15:21:36;31.60;94.00
16174;DHT22;14031;50.158;8.626;2022-07-21T15:24:04;31.20;94.10
16174;DHT22;14031;50.158;8.626;2022-07-21T15:26:31;30.90;94.40
16174;DHT22;14031;50.158;8.626;2022-07-21T15:28:58;30.50;94.80
16174;DHT22;14031;50.158;8.626;2022-07-21T15:31:25;30.30;95.70
16174;DHT22;14031;50.158;8.626;2022-07-21T15:33:53;30.10;96.60
16174;DHT22;14031;50.158;8.626;2022-07-21T15:36:20;30.00;96.50
16174;DHT22;14031;50.158;8.626;2022-07-21T15:38:48;29.80;96.60
16174;DHT22;14031;50.158;8.626;2022-07-21T15:41:15;29.70;96.90
16174;DHT22;14031;50.158;8.626;2022-07-21T15:43:43;29.60;97.10
16174;DHT22;14031;50.158;8.626;2022-07-21T15:46:10;29.50;97.80
16174;DHT22;14031;50.158;8.626;2022-07-21T15:48:37;29.40;97.50
16174;DHT22;14031;50.158;8.626;2022-07-21T15:51:04;29.20;97.60
16174;DHT22;14031;50.158;8.626;2022-07-21T15:53:31;29.10;97.70
16174;DHT22;14031;50.158;8.626;2022-07-21T15:55:59;29.10;97.70
16174;DHT22;14031;50.158;8.626;2022-07-21T15:58:26;29.00;98.10
16174;DHT22;14031;50.158;8.626;2022-07-21T16:00:54;29.00;98.40
16174;DHT22;14031;50.158;8.626;2022-07-21T16:03:21;28.90;98.10
16174;DHT22;14031;50.158;8.626;2022-07-21T16:05:48;28.80;98.40
16174;DHT22;14031;50.158;8.626;2022-07-21T16:08:15;28.70;98.60
16174;DHT22;14031;50.158;8.626;2022-07-21T16:10:42;28.80;99.20
16174;DHT22;14031;50.158;8.626;2022-07-21T16:13:11;28.80;99.10
16174;DHT22;14031;50.158;8.626;2022-07-21T16:15:37;28.90;99.50
16174;DHT22;14031;50.158;8.626;2022-07-21T16:18:04;29.10;99.20
16174;DHT22;14031;50.158;8.626;2022-07-21T16:20:31;29.30;98.50
16174;DHT22;14031;50.158;8.626;2022-07-21T16:22:58;29.70;98.40
16174;DHT22;14031;50.158;8.626;2022-07-21T16:25:25;30.30;98.40
16174;DHT22;14031;50.158;8.626;2022-07-21T16:27:52;31.00;97.60
16174;DHT22;14031;50.158;8.626;2022-07-21T16:30:20;31.90;96.30
16174;DHT22;14031;50.158;8.626;2022-07-21T16:32:47;32.40;94.50
16174;DHT22;14031;50.158;8.626;2022-07-21T16:35:14;32.70;94.30
16174;DHT22;14031;50.158;8.626;2022-07-21T16:37:45;32.50;93.80
16174;DHT22;14031;50.158;8.626;2022-07-21T16:40:13;32.00;94.40
16174;DHT22;14031;50.158;8.626;2022-07-21T16:42:43;31.70;95.20
16174;DHT22;14031;50.158;8.626;2022-07-21T16:45:10;31.40;95.10
16174;DHT22;14031;50.158;8.626;2022-07-21T16:47:39;31.10;96.10
16174;DHT22;14031;50.158;8.626;2022-07-21T16:50:07;30.90;96.40
16174;DHT22;14031;50.158;8.626;2022-07-21T16:52:34;30.70;96.70
16174;DHT22;14031;50.158;8.626;2022-07-21T16:55:04;30.60;96.60
16174;DHT22;14031;50.158;8.626;2022-07-21T16:57:33;30.80;97.30
16174;DHT22;14031;50.158;8.626;2022-07-21T17:00:00;31.40;96.60
16174;DHT22;14031;50.158;8.626;2022-07-21T17:02:26;31.80;95.30
16174;DHT22;14031;50.158;8.626;2022-07-21T17:04:55;32.00;95.30
16174;DHT22;14031;50.158;8.626;2022-07-21T17:07:22;31.90;95.30
16174;DHT22;14031;50.158;8.626;2022-07-21T17:09:49;32.00;95.00
16174;DHT22;14031;50.158;8.626;2022-07-21T17:12:16;31.80;95.30
16174;DHT22;14031;50.158;8.626;2022-07-21T17:14:43;31.50;96.00
16174;DHT22;14031;50.158;8.626;2022-07-21T17:17:10;31.10;96.10
16174;DHT22;14031;50.158;8.626;2022-07-21T17:19:37;30.60;96.80
16174;DHT22;14031;50.158;8.626;2022-07-21T17:22:05;30.40;98.10
16174;DHT22;14031;50.158;8.626;2022-07-21T17:24:32;30.10;98.20